Für Piloten

Informationen für Piloten zum Flugplatz Borken-Hoxfeld
Hier findest Du alle relevanten Informationen, die Du als Pilot benötigst, um Borken-Hoxfeld anzufliegen.

Flugplatz: Borken-Hoxfeld ICAO-Code: EDLY
Borken-Hoxfeld Info: 122,925 Mhz
GAFOR Gebiet: 32
Platzrunde: Motorflug; -> Südplatzrunde; Segelflug; -> Nordplatzrunde;
Landegebühr: z.Zt. 5,00 Euro
Platzhöhe: 48m üMSL
Pisten: 12/30 – 740 m x 30 m, GRAS
Betriebszeiten: PPR (in den Sommermonaten Mittagspause beachten)

 

Wetterforecast:

Available data for EDDL from the past 2 hours
DUESSELDORF
Metar
EDDL 250350Z 06002KT 7000 MIFG FEW045 09/09 Q1021 TEMPO 4500 BR

03:50 UTC

Wind: 60° 2kt

Visibility: 7000 m

Sky: FEW 4500 ft

Temp: 9 deg C / 48.2 deg F

Dewpoint: 9 deg C / 48.2 deg F

Pressure: 1021 hPa

TAF
TAF EDDL 242300Z 2500/2606 06003KT CAVOK TEMPO 2504/2508 4000 BR BKN010 PROB30 TEMPO 2604/2606 4000 BR BKN012

Alle obigen Informationen ersetzen nicht die vorgeschriebene, persönliche Flugvorbereitung.